Time;durP1;ratioP1;P1;durP2;ratioP2;P2;SDS_P1;SDS_P2;PMS_P1;PMS_P2;Temp;Humidity;BMP_temperature;BMP_pressure;BME280_temperature;BME280_humidity;BME280_pressure;Samples;Min_cycle;Max_cycle;Signal;HPM_P1;HPM_P2
2023/02/17 00:01:20;;;;;;;29.75;15.85;;;3.10;99.90;;;;;;5078155;28;20051;-76
2023/02/17 00:03:47;;;;;;;30.25;15.98;;;3.10;99.90;;;;;;5071402;28;20043;-76
2023/02/17 00:06:15;;;;;;;31.17;17.15;;;3.10;99.90;;;;;;5058967;28;20028;-76
2023/02/17 00:08:41;;;;;;;30.38;17.15;;;3.20;99.90;;;;;;5078667;28;20025;-76
2023/02/17 00:11:08;;;;;;;31.83;17.38;;;3.30;99.90;;;;;;5080313;28;20028;-76
2023/02/17 00:13:34;;;;;;;32.90;16.70;;;3.30;99.90;;;;;;5061006;28;20028;-76
2023/02/17 00:16:05;;;;;;;28.13;15.93;;;3.30;99.90;;;;;;5076579;28;20059;-76
2023/02/17 00:18:31;;;;;;;31.15;15.98;;;3.30;99.90;;;;;;5076448;28;20028;-76
2023/02/17 00:20:57;;;;;;;33.20;17.83;;;3.20;99.90;;;;;;5077408;28;20032;-76
2023/02/17 00:23:23;;;;;;;28.02;16.05;;;3.20;99.90;;;;;;5063162;28;20396;-76
2023/02/17 00:25:48;;;;;;;29.80;16.08;;;3.20;99.90;;;;;;5078328;28;20139;-76
2023/02/17 00:28:14;;;;;;;29.17;16.27;;;3.20;99.90;;;;;;5076925;28;20037;-75
2023/02/17 00:30:40;;;;;;;29.38;16.60;;;3.10;99.90;;;;;;5079318;28;20047;-76
2023/02/17 00:33:06;;;;;;;33.95;16.65;;;3.20;99.90;;;;;;5051412;28;20024;-76
2023/02/17 00:35:32;;;;;;;33.85;17.40;;;3.20;99.90;;;;;;5059712;28;20033;-76
2023/02/17 00:37:57;;;;;;;33.28;16.77;;;3.20;99.90;;;;;;5066114;28;20491;-76
2023/02/17 00:40:23;;;;;;;32.72;17.85;;;3.20;99.90;;;;;;5088365;28;20039;-76
2023/02/17 00:42:49;;;;;;;35.40;16.92;;;3.30;99.90;;;;;;5082573;28;20036;-76
2023/02/17 00:45:15;;;;;;;30.75;16.95;;;3.40;99.90;;;;;;5085431;28;20472;-76
2023/02/17 00:47:41;;;;;;;36.63;18.33;;;3.40;99.90;;;;;;5081003;28;20435;-75
2023/02/17 00:50:08;;;;;;;35.60;17.30;;;3.40;99.90;;;;;;5087506;28;20437;-76
2023/02/17 00:52:34;;;;;;;31.88;16.98;;;3.30;99.90;;;;;;5076827;28;20021;-76
2023/02/17 00:55:00;;;;;;;33.15;17.52;;;3.30;99.90;;;;;;5067921;28;20096;-76
2023/02/17 00:57:31;;;;;;;34.92;18.42;;;3.40;99.90;;;;;;5080760;28;20629;-76
2023/02/17 00:59:57;;;;;;;34.53;17.10;;;3.30;99.90;;;;;;5064693;28;20038;-76
2023/02/17 01:02:23;;;;;;;35.85;17.92;;;3.30;99.90;;;;;;5071090;28;20066;-75
2023/02/17 01:04:48;;;;;;;33.13;17.65;;;3.30;99.90;;;;;;5075184;28;20115;-76
2023/02/17 01:07:14;;;;;;;38.95;19.58;;;3.30;99.90;;;;;;5054355;28;20020;-76
2023/02/17 01:09:40;;;;;;;35.50;18.65;;;3.30;99.90;;;;;;5080603;28;20040;-76
2023/02/17 01:12:06;;;;;;;34.35;17.92;;;3.30;99.90;;;;;;5083469;28;20038;-76
2023/02/17 01:14:32;;;;;;;34.40;17.48;;;3.40;99.90;;;;;;5064753;28;20028;-76
2023/02/17 01:16:58;;;;;;;30.67;16.40;;;3.30;99.90;;;;;;5083863;28;20747;-75
2023/02/17 01:19:23;;;;;;;29.65;16.30;;;3.30;99.90;;;;;;5079666;28;20081;-76
2023/02/17 01:21:49;;;;;;;31.15;15.77;;;3.20;99.90;;;;;;5081752;28;20105;-76
2023/02/17 01:24:15;;;;;;;29.83;16.60;;;3.20;99.90;;;;;;5083195;28;20544;-76
2023/02/17 01:26:41;;;;;;;27.60;15.30;;;3.20;99.90;;;;;;5086314;28;20043;-76
2023/02/17 01:29:07;;;;;;;29.55;15.35;;;3.30;99.90;;;;;;5051872;28;20029;-76
2023/02/17 01:31:33;;;;;;;28.17;15.68;;;3.20;99.90;;;;;;5086054;28;20031;-76
2023/02/17 01:34:02;;;;;;;32.05;17.05;;;3.10;99.90;;;;;;5078204;28;20090;-76
2023/02/17 01:36:28;;;;;;;29.80;15.70;;;3.10;99.90;;;;;;5081971;28;20161;-76
2023/02/17 01:38:54;;;;;;;26.98;15.63;;;3.20;99.90;;;;;;5082563;28;20032;-75
2023/02/17 01:41:25;;;;;;;30.42;15.93;;;3.20;99.90;;;;;;5082740;28;20400;-75
2023/02/17 01:44:20;;;;;;;29.73;17.05;;;3.20;99.90;;;;;;5082770;28;20024;-77
2023/02/17 01:46:49;;;;;;;28.20;14.80;;;3.30;99.90;;;;;;5081947;28;20047;-77
2023/02/17 01:49:18;;;;;;;27.88;14.68;;;3.30;99.90;;;;;;5078279;28;20108;-76
2023/02/17 01:51:51;;;;;;;31.48;16.10;;;3.30;99.90;;;;;;5080363;28;20035;-76
2023/02/17 01:54:26;;;;;;;31.25;16.77;;;3.40;99.90;;;;;;5080250;28;20153;-76
2023/02/17 01:56:53;;;;;;;34.65;17.88;;;3.50;99.90;;;;;;5099350;28;20043;-76
2023/02/17 01:59:20;;;;;;;33.75;17.80;;;3.60;99.90;;;;;;5076543;28;20178;-76
2023/02/17 02:01:51;;;;;;;38.10;18.85;;;3.70;99.90;;;;;;5075831;28;20032;-77
2023/02/17 02:04:21;;;;;;;34.60;16.77;;;3.70;99.90;;;;;;5081481;28;20020;-76
2023/02/17 02:06:47;;;;;;;33.22;17.85;;;3.60;99.90;;;;;;5075849;28;20024;-76
2023/02/17 02:09:20;;;;;;;32.22;17.08;;;3.50;99.90;;;;;;5083426;28;20126;-76
2023/02/17 02:11:50;;;;;;;31.85;16.40;;;3.50;99.90;;;;;;5078909;28;20028;-76
2023/02/17 02:14:19;;;;;;;34.17;18.45;;;3.50;99.90;;;;;;5099990;28;20035;-76
2023/02/17 02:17:03;;;;;;;35.35;17.77;;;3.50;99.90;;;;;;5063345;28;20073;-76
2023/02/17 02:20:02;;;;;;;32.55;17.02;;;3.50;99.90;;;;;;5083617;28;20040;-76
2023/02/17 02:23:10;;;;;;;29.63;15.98;;;3.60;99.90;;;;;;5075183;28;20755;-77
2023/02/17 02:26:13;;;;;;;29.63;15.02;;;3.70;99.90;;;;;;5080573;28;20399;-76
2023/02/17 02:29:11;;;;;;;20.83;11.55;;;3.80;99.90;;;;;;5072296;28;20514;-76
2023/02/17 02:32:10;;;;;;;18.65;10.98;;;3.90;99.90;;;;;;5017601;28;20041;-77
2023/02/17 02:34:52;;;;;;;16.02;8.80;;;3.90;99.90;;;;;;5053749;28;20420;-76
2023/02/17 02:37:31;;;;;;;18.52;10.57;;;4.00;99.90;;;;;;5079529;28;20055;-77
2023/02/17 02:40:02;;;;;;;14.13;9.02;;;4.10;99.90;;;;;;5068022;28;20028;-76
2023/02/17 02:42:29;;;;;;;18.55;11.68;;;4.20;99.90;;;;;;5077275;28;20036;-76
2023/02/17 02:44:55;;;;;;;16.58;9.30;;;4.30;99.90;;;;;;5074417;28;20043;-76
2023/02/17 02:47:48;;;;;;;16.48;9.15;;;4.40;99.90;;;;;;5077640;28;20115;-77
2023/02/17 02:50:52;;;;;;;13.70;8.50;;;4.50;99.90;;;;;;5055274;28;20063;-76
2023/02/17 02:53:33;;;;;;;12.65;8.05;;;4.50;99.90;;;;;;5067136;28;20043;-77
2023/02/17 02:56:08;;;;;;;16.92;8.52;;;4.60;99.90;;;;;;5082358;28;20098;-76
2023/02/17 02:58:48;;;;;;;12.35;7.45;;;4.70;99.90;;;;;;5081985;28;20024;-76
2023/02/17 03:01:20;;;;;;;14.95;8.32;;;4.90;99.90;;;;;;5080801;28;20564;-77
2023/02/17 03:03:55;;;;;;;10.73;7.13;;;4.90;99.90;;;;;;5082953;28;20024;-77
2023/02/17 03:06:28;;;;;;;12.60;7.20;;;5.00;99.90;;;;;;5075627;28;20055;-77
2023/02/17 03:09:03;;;;;;;9.90;6.68;;;5.10;99.90;;;;;;5063623;28;20051;-77
2023/02/17 03:11:32;;;;;;;10.10;6.55;;;5.20;99.90;;;;;;5080122;28;20016;-77
2023/02/17 03:14:07;;;;;;;8.77;6.45;;;5.20;99.90;;;;;;5080426;28;20028;-77
2023/02/17 03:16:35;;;;;;;9.23;6.63;;;5.30;99.90;;;;;;5079076;28;20107;-77
2023/02/17 03:19:01;;;;;;;10.52;6.03;;;5.30;99.90;;;;;;5075495;28;20024;-78
2023/02/17 03:21:49;;;;;;;11.95;6.65;;;5.30;99.90;;;;;;5072883;28;20039;-78
2023/02/17 03:24:15;;;;;;;10.52;6.40;;;5.30;99.90;;;;;;5077012;28;20035;-77
2023/02/17 03:26:42;;;;;;;10.32;6.45;;;5.40;99.90;;;;;;5080561;28;20530;-77
2023/02/17 03:29:08;;;;;;;11.80;6.78;;;5.50;99.90;;;;;;5082037;28;20297;-77
2023/02/17 03:31:34;;;;;;;11.48;6.82;;;5.50;99.90;;;;;;5044936;28;20032;-77
2023/02/17 03:34:00;;;;;;;13.70;7.25;;;5.50;99.90;;;;;;5079449;28;20028;-77
2023/02/17 03:36:26;;;;;;;9.52;6.47;;;5.60;99.90;;;;;;5085225;28;20058;-77
2023/02/17 03:38:51;;;;;;;11.68;7.38;;;5.60;99.90;;;;;;5079973;28;20108;-77
2023/02/17 03:41:17;;;;;;;12.18;7.55;;;5.60;99.90;;;;;;5083212;28;20035;-77
2023/02/17 03:43:43;;;;;;;10.68;6.82;;;5.70;99.90;;;;;;5049187;28;20594;-77
2023/02/17 03:46:11;;;;;;;10.80;6.85;;;5.80;99.90;;;;;;5085740;28;20043;-77
2023/02/17 03:48:38;;;;;;;10.82;6.15;;;5.80;99.90;;;;;;5080733;28;20043;-77
2023/02/17 03:51:19;;;;;;;9.43;6.88;;;5.70;99.90;;;;;;5080930;28;20020;-77
2023/02/17 03:53:45;;;;;;;13.40;7.82;;;5.70;99.90;;;;;;5073916;28;20024;-77
2023/02/17 03:56:12;;;;;;;11.35;7.70;;;5.80;99.90;;;;;;5075180;28;20408;-78
2023/02/17 03:58:38;;;;;;;11.40;7.13;;;5.80;99.90;;;;;;5075052;28;20024;-77
2023/02/17 04:01:05;;;;;;;11.27;7.30;;;5.70;99.90;;;;;;5081854;28;20024;-77
2023/02/17 04:03:31;;;;;;;12.13;7.55;;;5.70;99.90;;;;;;5078499;28;20066;-77
2023/02/17 04:05:56;;;;;;;12.50;7.68;;;5.70;99.90;;;;;;5080945;28;20108;-77
2023/02/17 04:08:22;;;;;;;13.60;8.10;;;5.70;99.90;;;;;;5083382;28;20930;-78
2023/02/17 04:10:57;;;;;;;11.82;7.88;;;5.70;99.90;;;;;;5080248;28;20519;-78
2023/02/17 04:13:23;;;;;;;11.13;7.55;;;5.70;99.90;;;;;;5081184;28;20028;-78
2023/02/17 04:15:49;;;;;;;11.38;7.15;;;5.80;99.90;;;;;;5088147;28;20081;-77
2023/02/17 04:18:15;;;;;;;11.75;7.78;;;5.80;99.90;;;;;;5088771;28;20039;-77
2023/02/17 04:20:42;;;;;;;13.90;8.05;;;5.70;99.90;;;;;;5082086;28;20111;-77
2023/02/17 04:23:07;;;;;;;13.13;8.60;;;5.70;99.90;;;;;;5072889;28;20119;-77
2023/02/17 04:25:35;;;;;;;13.27;8.15;;;5.70;99.90;;;;;;5090054;28;20299;-77
2023/02/17 04:28:02;;;;;;;12.60;8.35;;;5.80;99.90;;;;;;5083186;28;20082;-77
2023/02/17 04:30:28;;;;;;;13.65;9.23;;;5.80;99.90;;;;;;5068844;28;20027;-77
2023/02/17 04:32:53;;;;;;;12.40;9.25;;;5.70;99.90;;;;;;5084932;28;20029;-78
2023/02/17 04:35:19;;;;;;;13.57;8.93;;;5.80;99.90;;;;;;5088701;28;20028;-77
2023/02/17 04:37:45;;;;;;;13.73;9.48;;;5.80;99.90;;;;;;5084808;28;20131;-77
2023/02/17 04:40:11;;;;;;;12.38;9.18;;;5.80;99.90;;;;;;5072519;28;20040;-77
2023/02/17 04:42:37;;;;;;;13.90;9.75;;;5.80;99.90;;;;;;5068103;28;20488;-77
2023/02/17 04:45:04;;;;;;;14.75;8.60;;;5.80;99.90;;;;;;5076331;28;20430;-78
2023/02/17 04:47:29;;;;;;;11.73;8.50;;;5.90;99.90;;;;;;5081737;28;20094;-78
2023/02/17 04:49:55;;;;;;;12.30;9.05;;;5.80;99.90;;;;;;5086352;28;20384;-77
2023/02/17 04:52:21;;;;;;;13.23;9.48;;;5.90;99.90;;;;;;5083949;28;20043;-77
2023/02/17 04:54:46;;;;;;;12.48;8.85;;;5.90;99.90;;;;;;5074417;28;20080;-78
2023/02/17 04:57:12;;;;;;;12.63;9.00;;;5.90;99.90;;;;;;5059841;28;20044;-77
2023/02/17 04:59:38;;;;;;;12.02;8.40;;;5.90;99.90;;;;;;5090262;28;20056;-78
2023/02/17 05:02:04;;;;;;;12.05;8.82;;;5.80;99.90;;;;;;5078838;28;20059;-78
2023/02/17 05:04:29;;;;;;;13.35;9.68;;;5.80;99.90;;;;;;5087606;28;20034;-77
2023/02/17 05:06:55;;;;;;;12.65;9.55;;;5.80;99.90;;;;;;5088740;28;20107;-77
2023/02/17 05:09:21;;;;;;;14.80;11.27;;;5.90;99.90;;;;;;5083566;28;20377;-77
2023/02/17 05:11:46;;;;;;;14.63;10.90;;;5.90;99.90;;;;;;5072705;28;20039;-77
2023/02/17 05:14:12;;;;;;;14.07;10.32;;;5.80;99.90;;;;;;5085715;28;20089;-77
2023/02/17 05:16:38;;;;;;;14.13;10.23;;;5.90;99.90;;;;;;5082612;28;20040;-78
2023/02/17 05:19:04;;;;;;;17.73;11.35;;;5.90;99.90;;;;;;5068501;28;20029;-78
2023/02/17 05:21:29;;;;;;;15.52;11.20;;;5.90;99.90;;;;;;5085750;28;20124;-78
2023/02/17 05:23:56;;;;;;;17.27;12.25;;;6.00;99.90;;;;;;5085444;28;20075;-78
2023/02/17 05:26:22;;;;;;;16.92;11.30;;;6.00;99.90;;;;;;5064006;28;20078;-78
2023/02/17 05:28:48;;;;;;;15.23;11.63;;;6.00;99.90;;;;;;5080761;28;20032;-77
2023/02/17 05:31:13;;;;;;;18.02;11.77;;;6.00;99.90;;;;;;5089526;28;20085;-77
2023/02/17 05:33:39;;;;;;;18.70;12.20;;;6.00;99.90;;;;;;5063580;28;20067;-78
2023/02/17 05:36:07;;;;;;;15.35;12.05;;;6.00;99.90;;;;;;5077780;28;20708;-77
2023/02/17 05:38:33;;;;;;;17.05;12.23;;;6.00;99.90;;;;;;5087119;28;20038;-78
2023/02/17 05:40:59;;;;;;;15.57;11.70;;;6.00;99.90;;;;;;5085433;28;20032;-78
2023/02/17 05:43:25;;;;;;;18.02;12.95;;;6.00;99.90;;;;;;5088666;28;20041;-78
2023/02/17 05:45:50;;;;;;;16.02;11.02;;;6.00;99.90;;;;;;5088343;28;20035;-78
2023/02/17 05:48:16;;;;;;;15.98;11.15;;;6.00;99.90;;;;;;5086626;28;20841;-77
2023/02/17 05:50:42;;;;;;;16.27;11.27;;;6.00;99.90;;;;;;5075112;28;20032;-77
2023/02/17 05:53:08;;;;;;;20.20;11.50;;;6.10;99.90;;;;;;5087231;28;21918;-77
2023/02/17 05:55:34;;;;;;;16.58;10.82;;;6.10;99.90;;;;;;5083462;28;20040;-77
2023/02/17 05:57:59;;;;;;;15.57;10.60;;;6.10;99.90;;;;;;5084151;28;20039;-78
2023/02/17 06:00:25;;;;;;;14.85;9.85;;;6.10;99.90;;;;;;5052376;28;20035;-78
2023/02/17 06:02:51;;;;;;;15.27;9.90;;;6.00;99.90;;;;;;5082595;28;20039;-77
2023/02/17 06:05:17;;;;;;;18.73;9.55;;;6.10;99.90;;;;;;5085243;28;20098;-77
2023/02/17 06:07:43;;;;;;;10.68;8.25;;;6.10;99.90;;;;;;5079654;28;20032;-77
2023/02/17 06:10:09;;;;;;;11.88;8.52;;;6.10;99.90;;;;;;5079171;28;20147;-77
2023/02/17 06:12:35;;;;;;;13.93;8.52;;;6.10;99.90;;;;;;5077793;28;20028;-77
2023/02/17 06:15:01;;;;;;;11.98;8.27;;;6.10;99.90;;;;;;5087607;28;20039;-77
2023/02/17 06:17:26;;;;;;;13.77;8.63;;;6.10;99.90;;;;;;5078936;28;20095;-77
2023/02/17 06:19:52;;;;;;;11.80;8.52;;;6.10;99.90;;;;;;5082654;28;20438;-77
2023/02/17 06:22:18;;;;;;;12.55;8.23;;;6.10;99.90;;;;;;5083452;28;20411;-77
2023/02/17 06:24:43;;;;;;;10.98;7.88;;;6.10;99.90;;;;;;5086207;28;20334;-77
2023/02/17 06:27:09;;;;;;;16.23;9.43;;;6.20;99.90;;;;;;5083630;28;20105;-77
2023/02/17 06:29:35;;;;;;;13.50;8.63;;;6.20;99.90;;;;;;5084736;28;20024;-77
2023/02/17 06:32:01;;;;;;;11.55;7.70;;;6.20;99.90;;;;;;5056136;28;20029;-77
2023/02/17 06:34:26;;;;;;;12.80;8.48;;;6.30;99.90;;;;;;5074278;28;20029;-78
2023/02/17 06:36:52;;;;;;;11.57;8.02;;;6.30;99.90;;;;;;5084074;28;20158;-77
2023/02/17 06:39:18;;;;;;;11.57;8.27;;;6.30;99.90;;;;;;5082339;28;20024;-77
2023/02/17 06:41:44;;;;;;;12.57;8.35;;;6.20;99.90;;;;;;5079432;28;20036;-77
2023/02/17 06:44:10;;;;;;;10.55;7.60;;;6.20;99.90;;;;;;5078747;28;20111;-78
2023/02/17 06:46:35;;;;;;;11.23;7.80;;;6.20;99.90;;;;;;5079943;28;20115;-77
2023/02/17 06:49:01;;;;;;;13.70;8.18;;;6.20;99.90;;;;;;5085884;28;20024;-76
2023/02/17 06:51:27;;;;;;;11.48;8.05;;;6.30;99.90;;;;;;5086528;28;20023;-77
2023/02/17 06:53:54;;;;;;;11.38;7.93;;;6.30;99.90;;;;;;5084436;28;20028;-78
2023/02/17 06:56:20;;;;;;;12.95;8.27;;;6.30;99.90;;;;;;5081363;28;20476;-77
2023/02/17 06:58:45;;;;;;;10.80;7.72;;;6.30;99.90;;;;;;5083085;28;20105;-77
2023/02/17 07:01:20;;;;;;;11.57;8.18;;;6.40;99.90;;;;;;5080729;28;20105;-77
2023/02/17 07:03:46;;;;;;;12.23;8.15;;;6.40;99.90;;;;;;5083248;28;20055;-77
2023/02/17 07:06:11;;;;;;;14.70;8.00;;;6.40;99.90;;;;;;5076100;28;20108;-77
2023/02/17 07:08:37;;;;;;;13.82;8.68;;;6.40;99.90;;;;;;5078511;28;20036;-77
2023/02/17 07:11:08;;;;;;;14.13;8.90;;;6.50;99.90;;;;;;5084556;28;20024;-77
2023/02/17 07:13:34;;;;;;;15.00;8.50;;;6.50;99.90;;;;;;5084912;28;20051;-77
2023/02/17 07:16:00;;;;;;;11.60;8.15;;;6.50;99.90;;;;;;5065137;28;20480;-77
2023/02/17 07:18:26;;;;;;;12.05;8.32;;;6.50;99.90;;;;;;5080300;28;20138;-77
2023/02/17 07:20:51;;;;;;;15.00;8.68;;;6.60;99.90;;;;;;5080441;28;20055;-77
2023/02/17 07:23:17;;;;;;;12.32;9.13;;;6.60;99.90;;;;;;5079081;28;20128;-77
2023/02/17 07:25:43;;;;;;;12.07;8.02;;;6.60;99.90;;;;;;5068148;28;20024;-77
2023/02/17 07:28:09;;;;;;;10.70;7.78;;;6.60;99.90;;;;;;5084540;28;20032;-78
2023/02/17 07:30:40;;;;;;;11.07;7.40;;;6.70;99.90;;;;;;5086745;28;20055;-76
2023/02/17 07:33:06;;;;;;;10.38;7.22;;;6.70;99.90;;;;;;5084403;28;20028;-77
2023/02/17 07:35:33;;;;;;;12.20;8.15;;;6.70;99.90;;;;;;5079977;28;20518;-77
2023/02/17 07:38:00;;;;;;;11.70;8.00;;;6.70;99.90;;;;;;5074623;28;20032;-77
2023/02/17 07:40:27;;;;;;;11.23;7.40;;;6.80;99.90;;;;;;5084490;28;20036;-77
2023/02/17 07:42:53;;;;;;;13.43;7.80;;;6.80;99.90;;;;;;5085330;28;20028;-77
2023/02/17 07:45:19;;;;;;;10.95;7.47;;;6.80;99.90;;;;;;5086134;28;20074;-76
2023/02/17 07:47:45;;;;;;;9.07;6.95;;;6.80;99.90;;;;;;5083526;28;20020;-76
2023/02/17 07:50:11;;;;;;;9.65;6.82;;;6.90;99.90;;;;;;5078872;28;20402;-76
2023/02/17 07:52:36;;;;;;;9.55;7.30;;;6.80;99.90;;;;;;5074872;28;20445;-77
2023/02/17 07:55:03;;;;;;;8.73;7.03;;;6.90;99.90;;;;;;5082658;28;20039;-78
2023/02/17 07:57:29;;;;;;;13.15;7.57;;;6.80;99.90;;;;;;5081073;28;20024;-77
2023/02/17 07:59:55;;;;;;;10.60;7.00;;;6.90;99.90;;;;;;5080288;28;20024;-78
2023/02/17 08:02:21;;;;;;;8.85;6.32;;;6.90;99.90;;;;;;5077309;28;20124;-78
2023/02/17 08:04:46;;;;;;;8.90;7.43;;;6.90;99.90;;;;;;5087414;28;20028;-77
2023/02/17 08:07:12;;;;;;;9.57;6.25;;;6.90;99.90;;;;;;5077863;28;20024;-77
2023/02/17 08:15:09;;;;;;;10.23;6.90;;;7.00;99.90;;;;;;5064019;28;20086;-77
2023/02/17 08:17:35;;;;;;;9.57;6.85;;;7.00;99.90;;;;;;5084428;28;20499;-76
2023/02/17 08:20:01;;;;;;;7.38;6.03;;;7.00;99.90;;;;;;5086459;28;20028;-77
2023/02/17 08:22:26;;;;;;;9.90;6.80;;;7.00;99.90;;;;;;5085008;28;20036;-77
2023/02/17 08:24:52;;;;;;;7.35;6.53;;;7.00;99.90;;;;;;5081487;28;20071;-77
2023/02/17 08:27:18;;;;;;;9.65;6.55;;;7.00;99.90;;;;;;5079660;28;20032;-77
2023/02/17 08:29:45;;;;;;;9.75;6.45;;;7.00;99.90;;;;;;5080846;28;20027;-77
2023/02/17 08:32:12;;;;;;;7.95;6.13;;;7.00;99.90;;;;;;5079175;28;20032;-77
2023/02/17 08:34:37;;;;;;;7.78;6.13;;;7.10;99.90;;;;;;5076626;28;20525;-77
2023/02/17 08:37:05;;;;;;;9.45;5.85;;;7.10;99.90;;;;;;5072323;28;20062;-77
2023/02/17 08:39:31;;;;;;;8.00;6.05;;;7.10;99.90;;;;;;5082448;28;20056;-77
2023/02/17 08:41:57;;;;;;;5.72;4.88;;;7.10;99.90;;;;;;5083661;28;20067;-77
2023/02/17 08:44:23;;;;;;;8.02;5.65;;;7.10;99.90;;;;;;5075550;28;20620;-77
2023/02/17 08:46:50;;;;;;;7.40;6.15;;;7.10;99.90;;;;;;5078159;28;20036;-77
2023/02/17 08:49:19;;;;;;;8.05;5.80;;;7.20;99.90;;;;;;5079955;28;20051;-76
2023/02/17 08:51:46;;;;;;;6.43;5.30;;;7.20;99.90;;;;;;5080265;28;20039;-76
2023/02/17 08:54:12;;;;;;;7.72;5.25;;;7.30;99.90;;;;;;5078192;28;20032;-76
2023/02/17 08:56:39;;;;;;;7.95;5.68;;;7.20;99.90;;;;;;5078831;28;20451;-77
2023/02/17 08:59:07;;;;;;;6.72;5.25;;;7.30;99.90;;;;;;5058350;28;20043;-77
2023/02/17 09:01:33;;;;;;;7.50;5.70;;;7.30;99.90;;;;;;5077836;28;20035;-78
2023/02/17 09:04:00;;;;;;;6.35;5.55;;;7.30;99.90;;;;;;5079545;28;20039;-77
2023/02/17 09:06:40;;;;;;;8.45;5.53;;;7.40;99.90;;;;;;5063034;28;20113;-77
2023/02/17 09:09:09;;;;;;;6.38;4.72;;;7.40;99.90;;;;;;5084937;28;20031;-77
2023/02/17 09:11:36;;;;;;;6.95;5.20;;;7.50;99.90;;;;;;5085140;28;20043;-76
2023/02/17 09:14:01;;;;;;;6.88;4.60;;;7.50;99.90;;;;;;5078361;28;20458;-77
2023/02/17 09:16:27;;;;;;;7.07;4.85;;;7.50;99.90;;;;;;5056439;28;20082;-77
2023/02/17 09:18:53;;;;;;;6.20;5.60;;;7.60;99.90;;;;;;5082309;28;20759;-77
2023/02/17 09:21:20;;;;;;;5.82;4.80;;;7.60;99.90;;;;;;5079754;28;20107;-77
2023/02/17 09:23:47;;;;;;;6.38;4.25;;;7.60;99.90;;;;;;5059919;28;20407;-76
2023/02/17 09:26:15;;;;;;;5.75;4.03;;;7.70;99.90;;;;;;5065963;28;20035;-76
2023/02/17 09:28:41;;;;;;;5.35;4.80;;;7.70;99.90;;;;;;5082034;28;20520;-77
2023/02/17 09:31:15;;;;;;;4.95;4.25;;;7.70;99.90;;;;;;5082969;28;20028;-76
2023/02/17 09:33:42;;;;;;;5.93;4.45;;;7.70;99.90;;;;;;5083515;28;20020;-77
2023/02/17 09:36:12;;;;;;;7.05;4.57;;;7.70;99.90;;;;;;5082647;28;20737;-76
2023/02/17 09:38:40;;;;;;;8.13;4.97;;;7.80;99.90;;;;;;5063447;28;20028;-76
2023/02/17 09:41:21;;;;;;;4.85;4.35;;;7.70;99.90;;;;;;5082785;28;20017;-76
2023/02/17 09:43:48;;;;;;;5.15;4.38;;;7.70;99.90;;;;;;5081109;28;20066;-76
2023/02/17 09:46:27;;;;;;;5.70;4.65;;;7.70;99.90;;;;;;5075118;28;20028;-76
2023/02/17 09:48:57;;;;;;;4.93;4.43;;;7.70;99.90;;;;;;5062443;28;20021;-76
2023/02/17 09:51:37;;;;;;;6.22;4.88;;;7.80;99.90;;;;;;5080905;28;20033;-76
2023/02/17 09:54:38;;;;;;;6.28;4.88;;;7.80;99.90;;;;;;5080795;28;20039;-76
2023/02/17 09:57:09;;;;;;;6.78;5.05;;;7.80;99.90;;;;;;5078047;28;20048;-75
2023/02/17 09:59:44;;;;;;;6.38;5.75;;;7.80;99.90;;;;;;5085338;28;20025;-76
2023/02/17 10:02:18;;;;;;;7.20;5.83;;;7.80;99.90;;;;;;5084726;28;20027;-76
2023/02/17 10:04:47;;;;;;;8.07;6.63;;;7.70;99.90;;;;;;5056537;28;20320;-76
2023/02/17 10:07:28;;;;;;;6.63;5.90;;;7.70;99.90;;;;;;5083039;28;20028;-76
2023/02/17 10:10:01;;;;;;;7.35;6.60;;;7.80;99.90;;;;;;5086303;28;20028;-76
2023/02/17 10:12:36;;;;;;;7.82;6.47;;;7.80;99.90;;;;;;5078564;28;20495;-76
2023/02/17 10:15:17;;;;;;;6.55;5.85;;;7.80;99.90;;;;;;5083518;28;20089;-76
2023/02/17 10:17:58;;;;;;;7.80;7.00;;;7.80;99.90;;;;;;5087554;28;20032;-76
2023/02/17 10:20:48;;;;;;;7.80;6.68;;;7.80;99.90;;;;;;5080716;28;20028;-76
2023/02/17 10:23:23;;;;;;;8.73;6.80;;;7.80;99.90;;;;;;5062162;28;20024;-76
2023/02/17 10:26:04;;;;;;;8.93;7.25;;;7.80;99.90;;;;;;5080076;28;20035;-76
2023/02/17 10:28:47;;;;;;;8.15;6.70;;;7.80;99.90;;;;;;5077596;28;20025;-76
2023/02/17 10:31:27;;;;;;;10.20;6.90;;;7.80;99.90;;;;;;5088130;28;20028;-76
2023/02/17 10:34:02;;;;;;;8.88;7.30;;;7.80;99.90;;;;;;5083867;28;20039;-76
2023/02/17 10:37:02;;;;;;;11.87;8.03;;;7.80;99.90;;;;;;5078384;28;20393;-75
2023/02/17 10:39:31;;;;;;;9.32;7.85;;;7.90;99.90;;;;;;5083671;28;20500;-76
2023/02/17 10:41:56;;;;;;;8.35;7.32;;;7.80;99.90;;;;;;5083082;28;20431;-76
2023/02/17 10:44:23;;;;;;;10.85;7.68;;;7.80;99.90;;;;;;5079381;28;20085;-76
2023/02/17 10:46:52;;;;;;;9.60;7.00;;;7.80;99.90;;;;;;5079452;28;20073;-76
2023/02/17 10:49:29;;;;;;;8.40;7.28;;;7.80;99.90;;;;;;5083786;28;20380;-76
2023/02/17 10:52:20;;;;;;;8.05;6.70;;;7.80;99.90;;;;;;5075083;28;20028;-76
2023/02/17 10:55:01;;;;;;;8.32;6.65;;;7.90;99.90;;;;;;5082102;28;20043;-76
2023/02/17 10:57:32;;;;;;;8.18;6.55;;;7.90;99.90;;;;;;5096313;28;20063;-75
2023/02/17 10:59:57;;;;;;;8.32;6.43;;;8.00;99.90;;;;;;5084217;28;20043;-76
2023/02/17 11:02:40;;;;;;;8.10;5.80;;;8.00;99.90;;;;;;5079923;28;20467;-76
2023/02/17 11:05:23;;;;;;;7.32;5.72;;;8.00;99.90;;;;;;5084456;28;20032;-77
2023/02/17 11:08:20;;;;;;;8.23;5.65;;;8.00;99.90;;;;;;5078170;28;20024;-76
2023/02/17 11:10:56;;;;;;;7.40;5.85;;;8.00;99.90;;;;;;5058636;28;20070;-77
2023/02/17 11:13:44;;;;;;;6.10;5.50;;;8.00;99.90;;;;;;5065184;28;20035;-76
2023/02/17 11:16:40;;;;;;;6.03;5.35;;;8.00;99.90;;;;;;5082543;28;20499;-76
2023/02/17 11:19:18;;;;;;;6.63;5.33;;;8.00;99.90;;;;;;5084419;28;20035;-76
2023/02/17 11:21:45;;;;;;;5.57;5.07;;;8.00;99.90;;;;;;5085228;28;20104;-75
2023/02/17 11:24:10;;;;;;;5.82;5.05;;;8.00;99.90;;;;;;5074935;28;20028;-77
2023/02/17 11:26:36;;;;;;;6.97;5.82;;;8.00;99.90;;;;;;5078592;28;20707;-77
2023/02/17 11:29:14;;;;;;;6.65;5.18;;;8.10;99.90;;;;;;5063626;28;20032;-76
2023/02/17 11:31:40;;;;;;;6.05;4.57;;;8.10;99.90;;;;;;5078242;28;20058;-77
2023/02/17 11:34:22;;;;;;;5.97;4.85;;;8.20;99.90;;;;;;5078563;28;20485;-76
2023/02/17 11:37:00;;;;;;;5.88;5.22;;;8.20;99.90;;;;;;5079429;28;20186;-76
2023/02/17 11:39:27;;;;;;;6.85;4.82;;;8.30;99.90;;;;;;5077525;28;20028;-76
2023/02/17 11:41:53;;;;;;;4.70;4.25;;;8.30;99.90;;;;;;5065014;28;20055;-76
2023/02/17 11:44:24;;;;;;;5.45;4.72;;;8.30;99.90;;;;;;5078698;28;20392;-76
2023/02/17 11:47:23;;;;;;;5.53;4.53;;;8.30;99.90;;;;;;5083054;28;20547;-76
2023/02/17 11:50:18;;;;;;;5.40;4.68;;;8.30;99.90;;;;;;5077305;28;20024;-76
2023/02/17 11:53:18;;;;;;;5.38;4.60;;;8.30;99.90;;;;;;5070268;28;20567;-76
2023/02/17 11:55:58;;;;;;;5.22;4.40;;;8.30;99.90;;;;;;5077639;28;20035;-76
2023/02/17 11:58:59;;;;;;;4.65;4.25;;;8.30;99.90;;;;;;5076785;28;20066;-76
2023/02/17 12:01:42;;;;;;;5.40;4.90;;;8.30;99.90;;;;;;5076975;28;20027;-76
2023/02/17 12:04:12;;;;;;;6.10;4.28;;;8.40;99.90;;;;;;5078965;28;20461;-75
2023/02/17 12:07:09;;;;;;;5.20;4.63;;;8.30;99.90;;;;;;5079036;28;20059;-75
2023/02/17 12:10:03;;;;;;;4.72;4.32;;;8.30;99.90;;;;;;5078683;28;20431;-75
2023/02/17 12:13:13;;;;;;;4.72;4.20;;;8.30;99.90;;;;;;5078486;28;20039;-76
2023/02/17 12:15:48;;;;;;;4.30;3.95;;;8.30;99.90;;;;;;5047065;28;20452;-75
2023/02/17 12:18:22;;;;;;;4.57;4.18;;;8.40;99.90;;;;;;5081110;28;20095;-76
2023/02/17 12:21:03;;;;;;;4.40;4.00;;;8.50;99.90;;;;;;5074815;28;20036;-76
2023/02/17 12:23:48;;;;;;;3.47;3.17;;;8.40;99.90;;;;;;5080970;28;20025;-75
2023/02/17 12:26:35;;;;;;;4.13;3.78;;;8.40;99.90;;;;;;5081178;28;20020;-75
2023/02/17 12:29:08;;;;;;;5.20;3.58;;;8.40;99.90;;;;;;5082316;28;20016;-75
2023/02/17 12:32:06;;;;;;;4.22;3.83;;;8.40;99.90;;;;;;5076362;28;20039;-75
2023/02/17 12:34:42;;;;;;;4.03;3.72;;;8.30;99.90;;;;;;5064803;28;20144;-75
2023/02/17 12:37:44;;;;;;;3.97;3.63;;;8.40;99.90;;;;;;5084292;28;20043;-76
2023/02/17 12:40:35;;;;;;;4.20;3.35;;;8.40;99.90;;;;;;5071045;28;20044;-76
2023/02/17 12:43:25;;;;;;;3.85;3.55;;;8.40;99.90;;;;;;5076838;28;20036;-75
2023/02/17 12:45:55;;;;;;;3.78;3.47;;;8.40;99.90;;;;;;5082913;28;20114;-76
2023/02/17 12:48:35;;;;;;;3.33;3.08;;;8.40;99.90;;;;;;5078539;28;20029;-76
2023/02/17 12:51:30;;;;;;;3.40;3.10;;;8.40;99.90;;;;;;5083417;28;20029;-76
2023/02/17 12:54:16;;;;;;;3.65;3.35;;;8.40;99.90;;;;;;5063800;28;20031;-76
2023/02/17 12:56:50;;;;;;;4.05;3.72;;;8.40;99.90;;;;;;5079986;28;20488;-76
2023/02/17 12:59:43;;;;;;;3.15;2.95;;;8.40;99.90;;;;;;5085888;28;20035;-76
2023/02/17 13:02:15;;;;;;;3.80;3.50;;;8.40;99.90;;;;;;5081801;28;20058;-76
2023/02/17 13:04:43;;;;;;;3.95;3.55;;;8.40;99.90;;;;;;5079268;28;20056;-76
2023/02/17 13:07:31;;;;;;;3.50;3.20;;;8.50;99.90;;;;;;5080337;28;20032;-75
2023/02/17 13:09:57;;;;;;;4.57;4.10;;;8.50;99.90;;;;;;5082544;28;20073;-76
2023/02/17 13:12:23;;;;;;;4.00;3.60;;;8.50;99.90;;;;;;5084453;28;20032;-76
2023/02/17 13:14:53;;;;;;;3.30;3.10;;;8.50;99.90;;;;;;5087913;28;20153;-76